createdAt,value
2018-12-12T01:00:59.608Z,95684.64
2018-12-12T01:06:16.741Z,95692.36
2018-12-12T01:11:26.426Z,95697.70
2018-12-12T01:16:34.883Z,95690.81
2018-12-12T01:21:38.232Z,95709.55
2018-12-12T01:26:41.603Z,95708.95
2018-12-12T02:35:21.940Z,95687.38
2018-12-12T02:40:26.034Z,95680.00
2018-12-12T02:45:29.393Z,95682.98
2018-12-12T02:50:33.489Z,95668.73
2018-12-12T02:55:36.815Z,95667.14
2018-12-12T04:04:04.584Z,95677.23
2018-12-12T04:09:07.916Z,95670.47
2018-12-12T04:14:12.021Z,95665.16
2018-12-12T04:19:15.364Z,95665.86
2018-12-12T04:24:19.464Z,95668.58
2018-12-12T04:29:22.797Z,95665.83
2018-12-12T05:31:28.993Z,95676.95
2018-12-12T05:36:32.333Z,95675.61
2018-12-12T05:41:35.675Z,95679.92
2018-12-12T05:46:42.022Z,95684.89
2018-12-12T05:51:43.902Z,95680.44
2018-12-12T05:56:52.304Z,95681.55
2018-12-12T07:05:12.646Z,95712.55
2018-12-12T07:10:15.986Z,95701.66
2018-12-12T07:15:19.316Z,95714.86
2018-12-12T07:20:30.977Z,95718.86
2018-12-12T07:25:34.318Z,95715.78
2018-12-12T08:34:01.788Z,95716.22
2018-12-12T08:39:05.129Z,95720.64
2018-12-12T08:44:08.457Z,95722.22
2018-12-12T08:49:11.785Z,95724.33
2018-12-12T08:54:15.105Z,95720.90
2018-12-12T08:59:18.435Z,95726.38
2018-12-12T10:01:22.734Z,95717.58
2018-12-12T10:06:26.056Z,95717.44
2018-12-12T10:11:29.385Z,95711.00
2018-12-12T10:16:33.521Z,95714.86
2018-12-12T10:21:37.604Z,95708.70
2018-12-12T10:26:40.936Z,95712.56
2018-12-12T11:35:07.185Z,95679.99
2018-12-12T11:40:10.508Z,95673.27
2018-12-12T11:45:13.832Z,95671.35
2018-12-12T11:50:17.161Z,95664.72
2018-12-12T11:55:20.501Z,95661.25
2018-12-12T12:00:23.840Z,95654.12
2018-12-12T13:02:30.102Z,95627.53
2018-12-12T13:07:33.436Z,95616.50
2018-12-12T13:12:37.520Z,95617.48
2018-12-12T13:17:40.868Z,95616.95
2018-12-12T13:22:44.230Z,95607.02
2018-12-12T13:27:47.555Z,95607.55
2018-12-12T14:30:18.823Z,95582.11
2018-12-12T14:35:22.157Z,95573.72
2018-12-12T14:40:25.492Z,95571.21
2018-12-12T14:45:28.833Z,95571.47
2018-12-12T14:50:32.191Z,95563.78
2018-12-12T14:55:35.523Z,95558.61
2018-12-12T16:04:06.176Z,95535.83
2018-12-12T16:09:09.522Z,95535.89
2018-12-12T16:14:12.868Z,95532.19
2018-12-12T16:19:16.249Z,95537.89
2018-12-12T16:24:19.588Z,95538.14
2018-12-12T16:29:22.948Z,95542.77
2018-12-12T16:34:27.233Z,95540.36
2018-12-12T16:39:30.568Z,95542.91
2018-12-12T16:44:33.940Z,95532.56
2018-12-12T16:49:37.301Z,95542.23
2018-12-12T16:54:41.399Z,95542.59
2018-12-12T16:59:44.754Z,95540.39
2018-12-12T17:04:49.001Z,95541.31
2018-12-12T17:09:52.327Z,95539.80
2018-12-12T17:14:55.676Z,95532.19
2018-12-12T17:19:59.074Z,95534.20
2018-12-12T17:25:02.448Z,95528.63
2018-12-12T17:30:05.798Z,95525.41
2018-12-12T17:35:09.211Z,95523.16
2018-12-12T17:40:12.499Z,95526.75
2018-12-12T17:45:15.824Z,95516.53
2018-12-12T17:50:19.201Z,95525.83
2018-12-12T17:55:22.565Z,95521.44
2018-12-12T18:00:25.916Z,95518.55
2018-12-12T18:05:29.273Z,95517.97
2018-12-12T18:10:32.600Z,95518.57
2018-12-12T18:15:36.225Z,95519.97
2018-12-12T18:20:40.329Z,95529.68
2018-12-12T18:25:43.657Z,95520.34
2018-12-12T18:30:47.764Z,95530.09
2018-12-12T18:35:51.135Z,95521.59
2018-12-12T18:40:54.465Z,95518.78
2018-12-12T18:45:57.806Z,95516.95
2018-12-12T18:51:01.187Z,95514.88
2018-12-12T18:56:04.524Z,95515.67
2018-12-12T19:01:07.881Z,95510.13
2018-12-12T19:06:11.239Z,95510.33
2018-12-12T19:11:14.580Z,95512.32
2018-12-12T19:16:17.928Z,95510.77
2018-12-12T19:21:21.291Z,95512.20
2018-12-12T19:26:24.620Z,95504.63
2018-12-12T19:31:28.720Z,95502.80
2018-12-12T19:36:32.074Z,95497.73
2018-12-12T19:41:35.419Z,95496.92
2018-12-12T19:46:38.756Z,95500.73
2018-12-12T19:51:42.136Z,95495.39
2018-12-12T19:56:45.473Z,95492.86
2018-12-12T20:01:48.980Z,95492.45
2018-12-12T20:06:52.311Z,95490.88
2018-12-12T20:11:55.698Z,95483.78
2018-12-12T20:16:59.036Z,95480.25
2018-12-12T20:22:03.177Z,95475.78
2018-12-12T20:27:07.284Z,95483.31
2018-12-12T20:32:10.676Z,95475.42
2018-12-12T20:37:13.961Z,95472.49
2018-12-12T20:42:17.344Z,95469.38
2018-12-12T20:47:20.686Z,95472.98
2018-12-12T20:52:24.003Z,95464.53
2018-12-12T20:57:27.354Z,95453.70
2018-12-12T21:02:31.498Z,95457.47
2018-12-12T21:07:35.655Z,95450.56
2018-12-12T21:12:38.996Z,95442.26
2018-12-12T21:17:42.340Z,95438.13
2018-12-12T21:22:45.824Z,95439.18
2018-12-12T21:33:07.142Z,95442.67
2018-12-12T21:38:13.888Z,95427.13
2018-12-12T21:43:17.665Z,95434.03
2018-12-12T21:48:31.044Z,95424.08
2018-12-12T21:53:35.494Z,95422.20
2018-12-12T21:58:40.331Z,95416.59
2018-12-12T22:03:44.144Z,95421.55
2018-12-12T22:08:48.748Z,95413.14
2018-12-12T22:13:52.127Z,95420.92
2018-12-12T22:18:56.244Z,95416.91
2018-12-12T22:23:59.591Z,95418.22
2018-12-12T22:29:02.931Z,95401.95
2018-12-12T22:34:06.252Z,95400.71
2018-12-12T22:39:09.589Z,95409.50
2018-12-12T22:44:12.936Z,95406.80
2018-12-12T22:49:16.282Z,95399.25
2018-12-12T22:54:19.620Z,95387.45
2018-12-12T22:59:23.715Z,95390.08
2018-12-12T23:30:43.749Z,95365.48
2018-12-12T23:35:47.850Z,95355.16
2018-12-12T23:40:51.183Z,95350.13
2018-12-12T23:45:55.282Z,95348.74
2018-12-12T23:50:58.624Z,95346.48
2018-12-12T23:56:02.720Z,95336.63
